Time;durP1;ratioP1;P1;durP2;ratioP2;P2;SDS_P1;SDS_P2;PMS_P1;PMS_P2;Temp;Humidity;BMP_temperature;BMP_pressure;BME280_temperature;BME280_humidity;BME280_pressure;Samples;Min_cycle;Max_cycle;Signal;HPM_P1;HPM_P2
2023/07/23 00:01:54;;;;;;;;;;;;;;;31.02;47.62;99182.50;5053886;28;20358;-76
2023/07/23 00:04:20;;;;;;;;;;;;;;;31.02;47.36;99183.31;5053997;28;19908;-78
2023/07/23 00:06:45;;;;;;;;;;;;;;;30.98;48.89;99190.53;5053852;28;19995;-78
2023/07/23 00:09:11;;;;;;;;;;;;;;;30.94;48.08;99190.34;5035819;28;19912;-78
2023/07/23 00:11:36;;;;;;;;;;;;;;;30.92;47.61;99180.91;5053808;28;19987;-79
2023/07/23 00:14:01;;;;;;;;;;;;;;;30.92;47.92;99192.59;5035821;28;19908;-79
2023/07/23 00:16:26;;;;;;;;;;;;;;;30.92;48.00;99194.53;5053575;28;19912;-79
2023/07/23 00:18:52;;;;;;;;;;;;;;;30.93;47.98;99188.75;5053385;28;19944;-80
2023/07/23 00:21:17;;;;;;;;;;;;;;;30.93;47.70;99193.41;5053398;28;20282;-78
2023/07/23 00:23:42;;;;;;;;;;;;;;;30.92;48.35;99186.34;5053380;28;19909;-78
2023/07/23 00:26:07;;;;;;;;;;;;;;;30.90;48.52;99188.59;5053303;28;19909;-79
2023/07/23 00:28:33;;;;;;;;;;;;;;;30.87;48.26;99194.69;5053237;28;19920;-79
2023/07/23 00:30:58;;;;;;;;;;;;;;;30.87;48.68;99191.97;5053323;28;19913;-78
2023/07/23 00:33:24;;;;;;;;;;;;;;;30.87;48.24;99195.50;5053238;28;19978;-78
2023/07/23 00:35:49;;;;;;;;;;;;;;;30.84;48.03;99190.69;5053228;28;20404;-78
2023/07/23 00:38:15;;;;;;;;;;;;;;;30.81;47.09;99196.78;5053155;28;19915;-78
2023/07/23 00:40:40;;;;;;;;;;;;;;;30.71;47.23;99199.81;5053069;28;19916;-79
2023/07/23 00:43:06;;;;;;;;;;;;;;;30.66;47.52;99224.50;5053129;28;20373;-78
2023/07/23 00:45:32;;;;;;;;;;;;;;;30.56;48.59;99232.94;5035233;28;20301;-78
2023/07/23 00:47:58;;;;;;;;;;;;;;;30.51;48.72;99254.91;5053044;28;19963;-78
2023/07/23 00:50:23;;;;;;;;;;;;;;;30.47;47.74;99275.69;5052915;28;19913;-78
2023/07/23 00:52:49;;;;;;;;;;;;;;;30.40;47.66;99289.75;5053024;28;19908;-78
2023/07/23 00:55:14;;;;;;;;;;;;;;;30.27;48.10;99307.03;5052649;28;19909;-78
2023/07/23 00:57:39;;;;;;;;;;;;;;;30.14;48.34;99316.91;5052719;28;19916;-78
2023/07/23 01:00:08;;;;;;;;;;;;;;;30.09;47.75;99310.78;5052743;28;19963;-78
2023/07/23 01:02:33;;;;;;;;;;;;;;;30.05;47.04;99326.94;5052651;28;20503;-78
2023/07/23 01:04:59;;;;;;;;;;;;;;;29.95;47.19;99338.88;5052644;28;19966;-78
2023/07/23 01:07:25;;;;;;;;;;;;;;;29.72;47.51;99340.75;5052551;28;19961;-77
2023/07/23 01:09:51;;;;;;;;;;;;;;;29.54;47.73;99339.03;5052432;28;19912;-78
2023/07/23 01:12:17;;;;;;;;;;;;;;;29.51;47.81;99336.91;5052519;28;19923;-78
2023/07/23 01:14:42;;;;;;;;;;;;;;;29.50;48.12;99332.59;5052241;28;19992;-78
2023/07/23 01:17:09;;;;;;;;;;;;;;;29.47;47.29;99326.97;5052300;28;19999;-78
2023/07/23 01:19:36;;;;;;;;;;;;;;;29.46;47.53;99345.19;5052162;28;20002;-78
2023/07/23 01:22:04;;;;;;;;;;;;;;;29.37;47.85;99347.00;5052247;28;19920;-78
2023/07/23 01:24:30;;;;;;;;;;;;;;;29.31;47.98;99340.88;5052654;28;20350;-78
2023/07/23 01:26:55;;;;;;;;;;;;;;;29.40;47.15;99324.63;5034406;28;20001;-78
2023/07/23 01:29:20;;;;;;;;;;;;;;;29.40;47.45;99327.34;5052569;28;19916;-78
2023/07/23 01:31:45;;;;;;;;;;;;;;;29.45;47.30;99327.28;5034598;28;19992;-77
2023/07/23 01:34:11;;;;;;;;;;;;;;;29.50;47.22;99321.72;5052728;28;19915;-78
2023/07/23 01:36:37;;;;;;;;;;;;;;;29.50;47.22;99326.34;5052677;28;19916;-78
2023/07/23 01:39:03;;;;;;;;;;;;;;;29.53;47.15;99326.53;5052673;28;19909;-79
2023/07/23 01:41:28;;;;;;;;;;;;;;;29.60;46.35;99331.53;5034569;28;19908;-79
2023/07/23 01:43:54;;;;;;;;;;;;;;;29.55;46.58;99337.91;5052300;28;19916;-78
2023/07/23 01:46:19;;;;;;;;;;;;;;;29.52;46.71;99332.28;5052124;28;19916;-79
2023/07/23 01:48:45;;;;;;;;;;;;;;;29.51;46.82;99342.38;5051372;28;20293;-78
2023/07/23 01:51:11;;;;;;;;;;;;;;;29.51;47.10;99350.53;5051839;28;19912;-79
2023/07/23 01:53:37;;;;;;;;;;;;;;;29.50;46.83;99351.63;5051762;28;19916;-78
2023/07/23 01:56:02;;;;;;;;;;;;;;;29.53;46.66;99353.75;5051955;28;19909;-79
2023/07/23 01:58:27;;;;;;;;;;;;;;;29.52;46.64;99352.13;5051515;28;20419;-79
2023/07/23 02:00:56;;;;;;;;;;;;;;;29.51;46.63;99349.72;5051560;28;19919;-79
2023/07/23 02:03:21;;;;;;;;;;;;;;;29.52;46.63;99354.84;5033679;28;19948;-79
2023/07/23 02:05:54;;;;;;;;;;;;;;;29.52;46.70;99352.13;5033551;28;19963;-78
2023/07/23 02:08:19;;;;;;;;;;;;;;;29.52;46.21;99354.03;5051588;28;19909;-79
2023/07/23 02:10:44;;;;;;;;;;;;;;;29.50;46.39;99343.47;5051595;28;19920;-76
2023/07/23 02:13:09;;;;;;;;;;;;;;;29.45;46.69;99338.16;5033813;28;20302;-77
2023/07/23 02:15:35;;;;;;;;;;;;;;;29.44;46.77;99341.19;5052284;28;19909;-78
2023/07/23 02:18:00;;;;;;;;;;;;;;;29.45;46.74;99340.88;5052302;28;19908;-78
2023/07/23 02:20:25;;;;;;;;;;;;;;;29.46;46.50;99353.34;5052095;28;20028;-78
2023/07/23 02:22:51;;;;;;;;;;;;;;;29.43;47.05;99356.69;5052009;28;19912;-78
2023/07/23 02:25:16;;;;;;;;;;;;;;;29.41;46.97;99367.03;5034074;28;19991;-78
2023/07/23 02:27:41;;;;;;;;;;;;;;;29.42;47.06;99372.19;5051874;28;19915;-79
2023/07/23 02:30:07;;;;;;;;;;;;;;;29.43;46.63;99383.91;5051664;28;20008;-78
2023/07/23 02:32:32;;;;;;;;;;;;;;;29.44;47.10;99393.66;5051769;28;19908;-76
2023/07/23 02:34:57;;;;;;;;;;;;;;;29.45;46.52;99406.16;5052046;28;19913;-78
2023/07/23 02:37:23;;;;;;;;;;;;;;;29.41;46.88;99419.53;5051914;28;19985;-78
2023/07/23 02:39:48;;;;;;;;;;;;;;;29.38;46.98;99422.06;5052033;28;20454;-78
2023/07/23 02:42:13;;;;;;;;;;;;;;;29.35;47.28;99406.34;5051914;28;19916;-79
2023/07/23 02:44:39;;;;;;;;;;;;;;;29.34;47.06;99416.41;5051503;28;20516;-78
2023/07/23 02:47:04;;;;;;;;;;;;;;;29.31;46.96;99429.81;5051372;28;19908;-78
2023/07/23 02:49:29;;;;;;;;;;;;;;;29.28;46.96;99438.59;5051083;28;20031;-79
2023/07/23 02:51:55;;;;;;;;;;;;;;;29.25;47.47;99456.31;5051056;28;19962;-78
2023/07/23 02:54:20;;;;;;;;;;;;;;;29.24;47.04;99454.72;5051262;28;19912;-78
2023/07/23 02:56:45;;;;;;;;;;;;;;;29.18;46.88;99450.50;5051361;28;19915;-78
2023/07/23 02:59:10;;;;;;;;;;;;;;;29.15;47.04;99444.84;5015723;28;19958;-78
2023/07/23 03:01:36;;;;;;;;;;;;;;;29.06;47.79;99458.34;5012641;28;19909;-78
2023/07/23 03:04:01;;;;;;;;;;;;;;;29.02;47.70;99458.16;5015272;28;19913;-79
2023/07/23 03:06:27;;;;;;;;;;;;;;;28.97;48.26;99460.94;5015243;28;20379;-79
2023/07/23 03:08:52;;;;;;;;;;;;;;;28.94;48.14;99456.09;5013804;28;19976;-78
2023/07/23 03:11:17;;;;;;;;;;;;;;;28.97;47.63;99454.69;5013592;28;19913;-78
2023/07/23 03:13:42;;;;;;;;;;;;;;;28.97;47.82;99450.06;5014397;28;19910;-78
2023/07/23 03:16:08;;;;;;;;;;;;;;;28.96;47.79;99456.59;5014448;28;20360;-78
2023/07/23 03:18:33;;;;;;;;;;;;;;;28.89;47.73;99464.34;5015496;28;20000;-78
2023/07/23 03:20:58;;;;;;;;;;;;;;;28.86;47.84;99462.22;5015505;28;19982;-78
2023/07/23 03:23:24;;;;;;;;;;;;;;;28.78;47.74;99460.97;5015415;28;19909;-78
2023/07/23 03:25:49;;;;;;;;;;;;;;;28.75;47.57;99466.22;5013997;28;19979;-78
2023/07/23 03:28:15;;;;;;;;;;;;;;;28.73;48.19;99468.44;5013949;28;19913;-78
2023/07/23 03:30:40;;;;;;;;;;;;;;;28.68;48.35;99455.75;5013375;28;19913;-78
2023/07/23 03:33:05;;;;;;;;;;;;;;;28.63;48.11;99463.16;5014753;28;20297;-78
2023/07/23 03:35:30;;;;;;;;;;;;;;;28.59;48.92;99454.81;5014696;28;19971;-78
2023/07/23 03:37:56;;;;;;;;;;;;;;;28.62;48.97;99469.72;5014563;28;19909;-78
2023/07/23 03:40:21;;;;;;;;;;;;;;;28.63;48.44;99463.16;5013066;28;19906;-78
2023/07/23 03:42:46;;;;;;;;;;;;;;;28.67;48.10;99459.56;5014503;28;19909;-78
2023/07/23 03:45:12;;;;;;;;;;;;;;;28.67;48.35;99456.03;5014982;28;19913;-77
2023/07/23 03:47:37;;;;;;;;;;;;;;;28.68;48.95;99453.03;5014799;28;20409;-78
2023/07/23 03:50:03;;;;;;;;;;;;;;;28.73;48.86;99457.56;5015455;28;19913;-78
2023/07/23 03:52:28;;;;;;;;;;;;;;;28.75;47.80;99458.06;5015080;28;20009;-78
2023/07/23 03:54:53;;;;;;;;;;;;;;;28.76;49.09;99465.09;5015108;28;19948;-78
2023/07/23 03:57:18;;;;;;;;;;;;;;;28.76;48.42;99460.47;5014133;28;19920;-78
2023/07/23 03:59:45;;;;;;;;;;;;;;;28.77;48.11;99470.25;5051859;28;20278;-78
2023/07/23 04:02:12;;;;;;;;;;;;;;;28.74;48.62;99470.03;5053812;28;19921;-78
2023/07/23 04:04:38;;;;;;;;;;;;;;;28.63;48.97;99474.03;5053683;28;19908;-79
2023/07/23 04:07:03;;;;;;;;;;;;;;;28.61;48.91;99478.97;5053766;28;20374;-78
2023/07/23 04:09:29;;;;;;;;;;;;;;;28.57;48.78;99480.66;5053728;28;19966;-78
2023/07/23 04:11:54;;;;;;;;;;;;;;;28.54;49.52;99484.78;5053354;28;19948;-78
2023/07/23 04:14:19;;;;;;;;;;;;;;;28.53;48.88;99490.53;5036520;28;19963;-79
2023/07/23 04:16:46;;;;;;;;;;;;;;;28.48;49.14;99489.50;5054037;28;20003;-78
2023/07/23 04:19:11;;;;;;;;;;;;;;;28.45;49.66;99494.72;5054367;28;19909;-78
2023/07/23 04:21:36;;;;;;;;;;;;;;;28.41;49.37;99486.34;5054532;28;20439;-78
2023/07/23 04:24:01;;;;;;;;;;;;;;;28.37;50.21;99492.69;5053807;28;19973;-76
2023/07/23 04:26:28;;;;;;;;;;;;;;;28.34;49.57;99491.38;5053997;28;19912;-78
2023/07/23 04:28:53;;;;;;;;;;;;;;;28.41;49.66;99504.56;5053353;28;19908;-78
2023/07/23 04:31:18;;;;;;;;;;;;;;;28.34;49.32;99504.13;5053131;28;19995;-78
2023/07/23 04:33:44;;;;;;;;;;;;;;;28.33;49.65;99503.34;5053240;28;20328;-78
2023/07/23 04:36:10;;;;;;;;;;;;;;;28.33;50.08;99514.19;5053153;28;19963;-78
2023/07/23 04:38:35;;;;;;;;;;;;;;;28.35;49.78;99516.63;5053086;28;19948;-78
2023/07/23 04:41:00;;;;;;;;;;;;;;;28.34;50.60;99513.09;5053232;28;19908;-78
2023/07/23 04:43:26;;;;;;;;;;;;;;;28.37;50.14;99517.13;5053309;28;19909;-79
2023/07/23 04:45:51;;;;;;;;;;;;;;;28.37;50.23;99517.94;5053666;28;19912;-78
2023/07/23 04:48:16;;;;;;;;;;;;;;;28.33;51.39;99519.63;5053436;28;20439;-78
2023/07/23 04:50:42;;;;;;;;;;;;;;;28.32;51.51;99526.16;5053221;28;20377;-79
2023/07/23 04:53:08;;;;;;;;;;;;;;;28.37;50.02;99525.28;5035208;28;19908;-78
2023/07/23 04:55:33;;;;;;;;;;;;;;;28.41;51.58;99527.09;5053198;28;19915;-78
2023/07/23 04:57:59;;;;;;;;;;;;;;;28.42;50.56;99520.56;5053503;28;19917;-78
2023/07/23 05:00:24;;;;;;;;;;;;;;;28.43;50.48;99524.09;5052710;28;20440;-79
2023/07/23 05:02:49;;;;;;;;;;;;;;;28.48;50.11;99526.72;5052692;28;19908;-78
2023/07/23 05:05:15;;;;;;;;;;;;;;;28.50;50.13;99526.44;5052566;28;20329;-78
2023/07/23 05:07:40;;;;;;;;;;;;;;;28.51;50.48;99536.19;5052770;28;19909;-78
2023/07/23 05:10:05;;;;;;;;;;;;;;;28.57;49.54;99535.81;5034675;28;19913;-78
2023/07/23 05:12:31;;;;;;;;;;;;;;;28.63;50.02;99539.25;5052464;28;20094;-79
2023/07/23 05:15:08;;;;;;;;;;;;;;;28.65;49.68;99528.88;5053151;28;19908;-78
2023/07/23 05:17:33;;;;;;;;;;;;;;;28.65;49.86;99534.31;5052676;28;19915;-78
2023/07/23 05:19:59;;;;;;;;;;;;;;;28.68;49.41;99533.72;5052777;28;19909;-78
2023/07/23 05:22:24;;;;;;;;;;;;;;;28.71;49.43;99527.69;5052823;28;19915;-78
2023/07/23 05:24:49;;;;;;;;;;;;;;;28.74;49.54;99527.91;5052305;28;20359;-77
2023/07/23 05:27:15;;;;;;;;;;;;;;;28.79;49.01;99521.56;5035102;28;19916;-78
2023/07/23 05:29:40;;;;;;;;;;;;;;;28.82;48.92;99528.31;5052231;28;19913;-78
2023/07/23 05:32:06;;;;;;;;;;;;;;;28.83;49.17;99528.03;5052130;28;20305;-79
2023/07/23 05:34:31;;;;;;;;;;;;;;;28.87;48.96;99529.06;5052248;28;20426;-79
2023/07/23 05:36:56;;;;;;;;;;;;;;;28.90;48.75;99525.75;5052067;28;19909;-79
2023/07/23 05:39:22;;;;;;;;;;;;;;;28.97;48.57;99525.38;5052049;28;20301;-78
2023/07/23 05:41:47;;;;;;;;;;;;;;;29.06;48.23;99518.97;5052066;28;19908;-78
2023/07/23 05:44:12;;;;;;;;;;;;;;;29.12;48.76;99522.38;5052021;28;19987;-78
2023/07/23 05:46:38;;;;;;;;;;;;;;;29.16;48.11;99519.88;5034220;28;19909;-79
2023/07/23 05:49:03;;;;;;;;;;;;;;;29.22;48.51;99521.38;5051749;28;19944;-76
2023/07/23 05:51:28;;;;;;;;;;;;;;;29.30;48.32;99520.69;5033790;28;20005;-78
2023/07/23 05:53:53;;;;;;;;;;;;;;;29.34;48.53;99513.53;5051760;28;19912;-78
2023/07/23 05:56:18;;;;;;;;;;;;;;;29.39;48.23;99519.69;5034046;28;19909;-78
2023/07/23 05:58:44;;;;;;;;;;;;;;;29.44;47.98;99516.06;5051817;28;20298;-78
2023/07/23 06:01:09;;;;;;;;;;;;;;;29.50;47.70;99514.88;5051782;28;19916;-79
2023/07/23 06:03:34;;;;;;;;;;;;;;;29.55;47.68;99511.22;5051607;28;20003;-78
2023/07/23 06:06:00;;;;;;;;;;;;;;;29.57;47.60;99512.53;5051452;28;19915;-77
2023/07/23 06:08:25;;;;;;;;;;;;;;;29.61;47.65;99502.66;5033675;28;19948;-79
2023/07/23 06:10:50;;;;;;;;;;;;;;;29.64;47.18;99499.31;5051472;28;19913;-78
2023/07/23 06:13:15;;;;;;;;;;;;;;;29.71;47.08;99502.44;5051602;28;20351;-78
2023/07/23 06:15:41;;;;;;;;;;;;;;;29.78;47.08;99503.97;5051457;28;20411;-78
2023/07/23 06:18:06;;;;;;;;;;;;;;;29.80;47.24;99509.91;5033740;28;19916;-78
2023/07/23 06:20:31;;;;;;;;;;;;;;;29.86;47.06;99508.69;5033654;28;19920;-78
2023/07/23 06:22:58;;;;;;;;;;;;;;;29.88;46.81;99511.91;5051593;28;19954;-77
2023/07/23 06:25:23;;;;;;;;;;;;;;;29.86;46.94;99514.94;5051381;28;19931;-78
2023/07/23 06:27:48;;;;;;;;;;;;;;;29.91;47.10;99511.28;5033324;28;20377;-78
2023/07/23 06:30:14;;;;;;;;;;;;;;;29.95;46.91;99517.72;5051750;28;19913;-78
2023/07/23 06:32:39;;;;;;;;;;;;;;;30.01;46.53;99524.69;5052067;28;20415;-79
2023/07/23 06:35:10;;;;;;;;;;;;;;;30.04;46.46;99524.09;5053651;28;19971;-78
2023/07/23 06:37:35;;;;;;;;;;;;;;;30.07;46.56;99520.75;5056242;28;20406;-79
2023/07/23 06:40:00;;;;;;;;;;;;;;;30.11;46.45;99526.38;5055798;28;19959;-78
2023/07/23 06:42:26;;;;;;;;;;;;;;;30.13;46.65;99519.53;5055677;28;20274;-78
2023/07/23 06:44:51;;;;;;;;;;;;;;;30.17;46.10;99520.53;5055607;28;19916;-78
2023/07/23 06:47:16;;;;;;;;;;;;;;;30.25;46.24;99524.44;5037253;28;19908;-77
2023/07/23 06:49:41;;;;;;;;;;;;;;;30.32;46.10;99520.16;5055091;28;19919;-76
2023/07/23 06:52:07;;;;;;;;;;;;;;;30.40;46.25;99521.34;5054955;28;20279;-76
2023/07/23 06:54:32;;;;;;;;;;;;;;;30.43;45.60;99518.00;5055088;28;19991;-77
2023/07/23 06:56:58;;;;;;;;;;;;;;;30.47;45.59;99516.28;5055443;28;20282;-77
2023/07/23 06:59:23;;;;;;;;;;;;;;;30.51;45.28;99511.81;5057839;28;19916;-79
2023/07/23 07:01:50;;;;;;;;;;;;;;;30.55;45.06;99504.63;5056499;28;19909;-78
2023/07/23 07:04:15;;;;;;;;;;;;;;;30.62;45.39;99501.50;5055528;28;19915;-78
2023/07/23 07:06:41;;;;;;;;;;;;;;;30.69;45.29;99501.88;5055702;28;19909;-78
2023/07/23 07:09:06;;;;;;;;;;;;;;;30.79;44.72;99496.16;5037589;28;19908;-77
2023/07/23 07:11:31;;;;;;;;;;;;;;;30.84;44.73;99500.66;5054998;28;19917;-77
2023/07/23 07:13:57;;;;;;;;;;;;;;;30.89;44.49;99504.06;5055306;28;19916;-77
2023/07/23 07:16:22;;;;;;;;;;;;;;;30.95;44.91;99497.34;5037192;28;19908;-77
2023/07/23 07:18:48;;;;;;;;;;;;;;;31.04;44.76;99499.31;5037279;28;19915;-77
2023/07/23 07:21:13;;;;;;;;;;;;;;;31.12;44.62;99499.34;5055961;28;19944;-78
2023/07/23 07:23:39;;;;;;;;;;;;;;;31.18;44.25;99500.03;5039675;28;19913;-78
2023/07/23 07:26:04;;;;;;;;;;;;;;;31.24;44.01;99499.59;5055686;28;19978;-78
2023/07/23 07:28:30;;;;;;;;;;;;;;;31.26;43.28;99496.56;5055133;28;19915;-78
2023/07/23 07:30:59;;;;;;;;;;;;;;;31.31;43.00;99498.34;5055762;28;19934;-79
2023/07/23 07:33:24;;;;;;;;;;;;;;;31.39;42.95;99497.56;5055458;28;19909;-79
2023/07/23 07:35:52;;;;;;;;;;;;;;;31.41;42.30;99500.78;5054918;28;19916;-78
2023/07/23 07:38:17;;;;;;;;;;;;;;;31.45;42.58;99497.09;5055165;28;19909;-78
2023/07/23 07:40:42;;;;;;;;;;;;;;;31.52;42.59;99493.91;5055114;28;19908;-79
2023/07/23 07:43:07;;;;;;;;;;;;;;;31.56;42.49;99489.41;5054893;28;19909;-79
2023/07/23 07:45:33;;;;;;;;;;;;;;;31.63;42.15;99489.75;5054402;28;20349;-77
2023/07/23 07:47:58;;;;;;;;;;;;;;;31.73;42.27;99485.94;5053482;28;19916;-80
2023/07/23 07:50:24;;;;;;;;;;;;;;;31.82;41.97;99478.56;5054493;28;20356;-77
2023/07/23 07:52:50;;;;;;;;;;;;;;;31.94;41.85;99489.66;5054553;28;19916;-78
2023/07/23 07:55:15;;;;;;;;;;;;;;;32.04;40.66;99485.81;5054428;28;19909;-79
2023/07/23 07:57:40;;;;;;;;;;;;;;;32.11;40.67;99480.69;5054342;28;19965;-79
2023/07/23 08:00:07;;;;;;;;;;;;;;;32.19;40.74;99479.88;5054045;28;19912;-79
2023/07/23 08:02:33;;;;;;;;;;;;;;;32.30;40.48;99475.72;5054131;28;20286;-79
2023/07/23 08:04:58;;;;;;;;;;;;;;;32.39;39.70;99478.44;5054360;28;19909;-79
2023/07/23 08:07:24;;;;;;;;;;;;;;;32.35;37.81;99483.72;5036200;28;19992;-78
2023/07/23 08:09:52;;;;;;;;;;;;;;;32.41;36.34;99476.16;5054659;28;19913;-78
2023/07/23 08:12:18;;;;;;;;;;;;;;;32.43;36.78;99469.25;5054145;28;19909;-79
2023/07/23 08:14:43;;;;;;;;;;;;;;;32.55;37.73;99471.31;5053927;28;20439;-77
2023/07/23 08:17:09;;;;;;;;;;;;;;;32.60;37.24;99473.88;5053758;28;19908;-79
2023/07/23 08:19:34;;;;;;;;;;;;;;;32.69;36.18;99471.13;5054002;28;19916;-78
2023/07/23 08:22:00;;;;;;;;;;;;;;;32.72;37.29;99475.97;5054240;28;20022;-78
2023/07/23 08:24:25;;;;;;;;;;;;;;;32.81;35.21;99468.56;5053804;28;20278;-79
2023/07/23 08:26:54;;;;;;;;;;;;;;;32.92;35.39;99478.00;5053790;28;20333;-78
2023/07/23 08:29:21;;;;;;;;;;;;;;;33.00;34.70;99477.16;5053295;28;19908;-77
2023/07/23 08:31:46;;;;;;;;;;;;;;;33.11;35.04;99475.66;5053204;28;19908;-79
2023/07/23 08:34:12;;;;;;;;;;;;;;;33.05;32.48;99467.97;5053160;28;19912;-79
2023/07/23 08:36:37;;;;;;;;;;;;;;;33.09;32.14;99460.72;5053335;28;19909;-79
2023/07/23 08:39:04;;;;;;;;;;;;;;;33.15;33.07;99457.47;5053085;28;19916;-79
2023/07/23 08:41:48;;;;;;;;;;;;;;;33.29;32.35;99461.91;5053280;28;20274;-78
2023/07/23 08:44:25;;;;;;;;;;;;;;;33.44;32.98;99456.72;5053234;28;20320;-78
2023/07/23 08:46:58;;;;;;;;;;;;;;;33.54;33.24;99462.94;5035798;28;20046;-79
2023/07/23 08:49:24;;;;;;;;;;;;;;;33.60;31.58;99470.63;5053415;28;19944;-78
2023/07/23 08:51:49;;;;;;;;;;;;;;;33.66;29.32;99463.81;5053358;28;19994;-80
2023/07/23 08:54:16;;;;;;;;;;;;;;;33.73;29.17;99463.28;5053262;28;19909;-79
2023/07/23 08:56:41;;;;;;;;;;;;;;;33.82;30.73;99460.50;5053225;28;19909;-78
2023/07/23 08:59:07;;;;;;;;;;;;;;;33.89;27.81;99466.25;5052979;28;20007;-77
2023/07/23 09:01:39;;;;;;;;;;;;;;;33.99;30.47;99474.84;5052985;28;19983;-77
2023/07/23 09:04:06;;;;;;;;;;;;;;;34.06;29.36;99471.56;5052876;28;19911;-79
2023/07/23 09:06:31;;;;;;;;;;;;;;;34.15;28.63;99471.50;5052825;28;19966;-79
2023/07/23 09:09:00;;;;;;;;;;;;;;;34.13;28.38;99474.56;5052572;28;19905;-79
2023/07/23 09:11:25;;;;;;;;;;;;;;;34.23;28.71;99470.63;5053073;28;19916;-76
2023/07/23 09:13:50;;;;;;;;;;;;;;;34.41;29.10;99466.63;5035079;28;19908;-79
2023/07/23 09:16:22;;;;;;;;;;;;;;;34.53;28.36;99454.88;5052316;28;19962;-78
2023/07/23 09:18:48;;;;;;;;;;;;;;;34.68;29.30;99476.97;5052384;28;19914;-78
2023/07/23 09:21:21;;;;;;;;;;;;;;;34.72;28.10;99466.13;5052256;28;19909;-80
2023/07/23 09:23:49;;;;;;;;;;;;;;;34.91;28.03;99473.81;5052183;28;20007;-78
2023/07/23 09:26:18;;;;;;;;;;;;;;;35.07;28.25;99460.25;5052260;28;19909;-77
2023/07/23 09:28:44;;;;;;;;;;;;;;;35.15;28.69;99460.13;5052201;28;20290;-77
2023/07/23 09:31:10;;;;;;;;;;;;;;;35.35;27.28;99464.72;5052177;28;19920;-77
2023/07/23 09:33:35;;;;;;;;;;;;;;;35.51;28.17;99462.06;5052292;28;20397;-78
2023/07/23 09:36:02;;;;;;;;;;;;;;;35.63;28.27;99464.78;5052185;28;20397;-78
2023/07/23 09:38:28;;;;;;;;;;;;;;;35.78;27.38;99468.78;5052123;28;20452;-79
2023/07/23 09:40:54;;;;;;;;;;;;;;;35.84;27.81;99461.13;5052064;28;20296;-79
2023/07/23 09:43:20;;;;;;;;;;;;;;;35.87;26.65;99461.25;5052165;28;19908;-77
2023/07/23 09:45:46;;;;;;;;;;;;;;;35.94;25.56;99455.94;5052294;28;19915;-78
2023/07/23 09:48:13;;;;;;;;;;;;;;;36.13;27.14;99460.78;5052214;28;19942;-76
2023/07/23 09:50:38;;;;;;;;;;;;;;;36.24;26.01;99466.59;5052356;28;19916;-78
2023/07/23 09:53:07;;;;;;;;;;;;;;;36.48;26.97;99458.25;5052028;28;20274;-76
2023/07/23 09:55:33;;;;;;;;;;;;;;;36.67;26.01;99446.56;5051016;28;19919;-76
2023/07/23 09:58:02;;;;;;;;;;;;;;;36.82;24.95;99445.00;5051902;28;19916;-75
2023/07/23 10:00:27;;;;;;;;;;;;;;;36.87;24.44;99445.53;5052527;28;19913;-76
2023/07/23 10:02:55;;;;;;;;;;;;;;;36.94;24.82;99447.66;5052019;28;19915;-79
2023/07/23 10:05:20;;;;;;;;;;;;;;;37.07;25.35;99438.13;5052032;28;20002;-77
2023/07/23 10:07:47;;;;;;;;;;;;;;;37.24;24.51;99434.25;5034131;28;19966;-77
2023/07/23 10:10:13;;;;;;;;;;;;;;;37.27;23.65;99430.00;5052092;28;20320;-79
2023/07/23 10:12:39;;;;;;;;;;;;;;;37.42;24.53;99431.91;5052829;28;19908;-79
2023/07/23 10:15:05;;;;;;;;;;;;;;;37.58;22.82;99438.16;5034495;28;20405;-78
2023/07/23 10:17:30;;;;;;;;;;;;;;;37.71;24.70;99428.63;5052066;28;19962;-77
2023/07/23 10:19:56;;;;;;;;;;;;;;;37.84;23.23;99421.00;5052532;28;19958;-77
2023/07/23 10:22:22;;;;;;;;;;;;;;;37.79;20.33;99421.31;5052248;28;19916;-78
2023/07/23 10:24:51;;;;;;;;;;;;;;;37.97;21.32;99425.25;5033839;28;19916;-78
2023/07/23 10:27:16;;;;;;;;;;;;;;;37.97;23.20;99408.69;5051767;28;19916;-76
2023/07/23 10:30:01;;;;;;;;;;;;;;;38.08;21.66;99408.91;5052280;28;19916;-78
2023/07/23 10:32:26;;;;;;;;;;;;;;;38.35;22.25;99394.06;5052044;28;19909;-77
2023/07/23 10:34:53;;;;;;;;;;;;;;;38.33;21.95;99406.63;5034396;28;20392;-77
2023/07/23 10:37:19;;;;;;;;;;;;;;;38.41;19.32;99414.66;5055600;28;19909;-80
2023/07/23 10:39:59;;;;;;;;;;;;;;;38.51;20.57;99407.75;5053001;28;19916;-78
2023/07/23 10:42:41;;;;;;;;;;;;;;;38.65;19.25;99407.25;5051775;28;20411;-79
2023/07/23 10:45:21;;;;;;;;;;;;;;;38.54;18.13;99415.28;5052263;28;20022;-77
2023/07/23 10:47:50;;;;;;;;;;;;;;;38.37;18.47;99388.97;5051572;28;19916;-78
2023/07/23 10:50:17;;;;;;;;;;;;;;;38.65;19.29;99401.72;5051569;28;19916;-78
2023/07/23 10:52:49;;;;;;;;;;;;;;;38.71;17.19;99409.31;5051655;28;19919;-78
2023/07/23 10:55:33;;;;;;;;;;;;;;;38.86;18.62;99406.78;5051680;28;19905;-79
2023/07/23 10:58:12;;;;;;;;;;;;;;;38.94;19.36;99405.72;5033448;28;19917;-78
2023/07/23 11:00:44;;;;;;;;;;;;;;;39.03;17.92;99395.22;5051210;28;19909;-79
2023/07/23 11:03:11;;;;;;;;;;;;;;;39.18;17.73;99404.53;5033220;28;19913;-77
2023/07/23 11:05:40;;;;;;;;;;;;;;;39.30;17.63;99407.88;5051314;28;19907;-77
2023/07/23 11:08:12;;;;;;;;;;;;;;;39.40;18.04;99393.44;5051231;28;19913;-77
2023/07/23 11:10:45;;;;;;;;;;;;;;;39.53;18.40;99402.31;5051088;28;19920;-77
2023/07/23 11:13:11;;;;;;;;;;;;;;;39.67;17.08;99405.25;5051194;28;19909;-79
2023/07/23 11:15:36;;;;;;;;;;;;;;;39.62;16.68;99391.75;5051344;28;19909;-79
2023/07/23 11:18:02;;;;;;;;;;;;;;;39.66;15.71;99398.13;5050907;28;19958;-78
2023/07/23 11:20:27;;;;;;;;;;;;;;;39.52;14.28;99413.72;5051014;28;19992;-80
2023/07/23 11:22:52;;;;;;;;;;;;;;;39.45;14.51;99389.53;5054027;28;20450;-79
2023/07/23 11:25:18;;;;;;;;;;;;;;;39.40;14.99;99385.13;5055349;28;19916;-79
2023/07/23 11:27:43;;;;;;;;;;;;;;;39.64;16.56;99381.13;5054867;28;19932;-79
2023/07/23 11:30:12;;;;;;;;;;;;;;;39.85;15.10;99382.53;5054825;28;19920;-78
2023/07/23 11:32:37;;;;;;;;;;;;;;;39.97;14.54;99371.25;5054862;28;19908;-78
2023/07/23 11:35:03;;;;;;;;;;;;;;;40.02;14.53;99376.44;5054855;28;19916;-77
2023/07/23 11:37:28;;;;;;;;;;;;;;;40.26;14.25;99386.19;5054851;28;19999;-79
2023/07/23 11:39:54;;;;;;;;;;;;;;;40.19;13.16;99375.84;5054541;28;19909;-78
2023/07/23 11:42:20;;;;;;;;;;;;;;;40.23;15.34;99382.19;5054400;28;19999;-78
2023/07/23 11:45:04;;;;;;;;;;;;;;;40.31;14.96;99369.22;5054347;28;20425;-79
2023/07/23 11:47:30;;;;;;;;;;;;;;;40.47;15.85;99380.88;5054732;28;19913;-79
2023/07/23 11:49:55;;;;;;;;;;;;;;;40.61;14.79;99374.66;5054628;28;19916;-79
2023/07/23 11:52:23;;;;;;;;;;;;;;;40.32;14.38;99379.13;5054248;28;19908;-79
2023/07/23 11:54:49;;;;;;;;;;;;;;;40.47;14.76;99377.31;5036290;28;19952;-79
2023/07/23 11:57:15;;;;;;;;;;;;;;;40.61;15.26;99380.97;5054407;28;19916;-79
2023/07/23 11:59:42;;;;;;;;;;;;;;;40.57;13.67;99368.28;5036174;28;19970;-79
2023/07/23 12:02:08;;;;;;;;;;;;;;;40.52;14.93;99371.41;5054003;28;20408;-78
2023/07/23 12:04:37;;;;;;;;;;;;;;;40.70;13.42;99361.28;5054111;28;19908;-79
2023/07/23 12:07:02;;;;;;;;;;;;;;;40.80;14.32;99371.66;5036024;28;20303;-79
2023/07/23 12:09:28;;;;;;;;;;;;;;;40.78;13.80;99356.56;5054023;28;19938;-79
2023/07/23 12:11:53;;;;;;;;;;;;;;;40.91;15.16;99353.16;5035929;28;19909;-78
2023/07/23 12:14:19;;;;;;;;;;;;;;;40.97;14.73;99359.13;5053963;28;20314;-77
2023/07/23 12:16:51;;;;;;;;;;;;;;;40.79;13.14;99361.75;5054148;28;19948;-77
2023/07/23 12:19:18;;;;;;;;;;;;;;;40.76;14.79;99359.72;5054073;28;19908;-79
2023/07/23 12:21:44;;;;;;;;;;;;;;;40.73;13.47;99356.94;5035702;28;19915;-78
2023/07/23 12:24:17;;;;;;;;;;;;;;;40.79;14.40;99353.47;5053549;28;19916;-79
2023/07/23 12:26:42;;;;;;;;;;;;;;;40.86;13.27;99361.00;5053585;28;19993;-77
2023/07/23 12:29:08;;;;;;;;;;;;;;;40.91;12.68;99346.84;5054162;28;19909;-78
2023/07/23 12:31:38;;;;;;;;;;;;;;;40.74;13.31;99364.84;5053968;28;19940;-77
2023/07/23 12:34:03;;;;;;;;;;;;;;;40.63;13.46;99352.91;5035441;28;19909;-80
2023/07/23 12:36:28;;;;;;;;;;;;;;;40.84;14.17;99346.75;5053598;28;19915;-80
2023/07/23 12:38:53;;;;;;;;;;;;;;;40.91;12.37;99344.06;5053418;28;19916;-79
2023/07/23 12:41:19;;;;;;;;;;;;;;;40.95;13.55;99353.97;5053264;28;19909;-79
2023/07/23 12:43:44;;;;;;;;;;;;;;;41.02;13.19;99352.44;5053471;28;19904;-80